createdAt,value
2018-10-01T00:00:50.991Z,73.00
2018-10-01T00:03:19.940Z,73.00
2018-10-01T00:05:48.772Z,73.00
2018-10-01T00:08:18.306Z,73.10
2018-10-01T00:10:47.156Z,72.90
2018-10-01T00:13:15.980Z,72.90
2018-10-01T00:15:44.765Z,72.80
2018-10-01T00:18:13.611Z,73.20
2018-10-01T00:22:50.601Z,73.10
2018-10-01T00:25:19.461Z,73.00
2018-10-01T00:27:48.328Z,73.40
2018-10-01T00:30:17.091Z,73.40
2018-10-01T00:32:45.915Z,73.10
2018-10-01T00:35:14.753Z,73.20
2018-10-01T00:37:43.607Z,73.50
2018-10-01T00:40:12.521Z,73.80
2018-10-01T00:42:41.417Z,73.90
2018-10-01T00:45:10.617Z,74.20
2018-10-01T00:47:39.517Z,73.90
2018-10-01T00:50:08.410Z,74.30
2018-10-01T00:52:37.253Z,74.00
2018-10-01T00:55:06.446Z,74.00
2018-10-01T00:57:35.287Z,74.10
2018-10-01T01:00:04.179Z,73.80
2018-10-01T01:02:33.011Z,74.00
2018-10-01T01:05:01.786Z,74.30
2018-10-01T01:07:30.608Z,73.70
2018-10-01T01:09:59.409Z,73.70
2018-10-01T01:12:28.318Z,73.90
2018-10-01T01:14:57.087Z,73.70
2018-10-01T01:17:26.022Z,73.80
2018-10-01T01:19:54.796Z,73.50
2018-10-01T01:22:23.595Z,72.50
2018-10-01T01:24:52.454Z,73.30
2018-10-01T01:27:21.230Z,73.30
2018-10-01T01:29:49.991Z,73.20
2018-10-01T01:32:18.852Z,72.90
2018-10-01T01:34:47.639Z,73.20
2018-10-01T01:37:16.432Z,73.30
2018-10-01T01:39:45.374Z,73.20
2018-10-01T01:42:14.147Z,72.90
2018-10-01T01:44:42.919Z,72.60
2018-10-01T01:47:11.752Z,72.90
2018-10-01T01:49:40.558Z,72.80
2018-10-01T01:52:09.353Z,73.00
2018-10-01T01:54:38.241Z,72.50
2018-10-01T01:57:07.088Z,72.70
2018-10-01T01:59:35.903Z,73.10
2018-10-01T02:02:04.888Z,72.70
2018-10-01T02:04:33.687Z,72.60
2018-10-01T02:07:02.518Z,72.70
2018-10-01T02:09:31.383Z,72.60
2018-10-01T02:12:00.209Z,72.20
2018-10-01T02:14:29.031Z,72.80
2018-10-01T02:16:57.812Z,73.20
2018-10-01T02:19:26.630Z,73.20
2018-10-01T02:21:55.418Z,73.40
2018-10-01T02:24:24.581Z,73.10
2018-10-01T02:26:53.345Z,73.10
2018-10-01T02:29:22.164Z,73.20
2018-10-01T02:31:50.997Z,72.80
2018-10-01T02:34:19.862Z,72.20
2018-10-01T02:36:48.797Z,72.40
2018-10-01T02:39:17.584Z,72.50
2018-10-01T02:41:46.385Z,72.50
2018-10-01T02:44:15.256Z,72.90
2018-10-01T02:46:44.315Z,72.30
2018-10-01T02:49:13.136Z,72.30
2018-10-01T02:51:47.437Z,72.10
2018-10-01T02:54:21.594Z,71.70
2018-10-01T02:56:50.383Z,71.60
2018-10-01T02:59:19.169Z,71.50
2018-10-01T03:01:48.001Z,71.70
2018-10-01T03:04:16.943Z,72.10
2018-10-01T03:06:45.693Z,72.00
2018-10-01T03:09:15.472Z,71.90
2018-10-01T03:11:44.290Z,71.50
2018-10-01T03:14:13.169Z,71.70
2018-10-01T03:16:41.969Z,71.60
2018-10-01T03:19:10.797Z,71.60
2018-10-01T03:21:39.860Z,72.00
2018-10-01T03:24:08.941Z,71.80
2018-10-01T03:26:37.856Z,71.60
2018-10-01T03:29:06.838Z,71.30
2018-10-01T03:31:35.651Z,71.40
2018-10-01T03:34:04.464Z,71.80
2018-10-01T03:36:33.592Z,71.50
2018-10-01T03:39:02.438Z,71.90
2018-10-01T03:41:31.206Z,71.50
2018-10-01T03:43:59.986Z,71.60
2018-10-01T03:46:28.824Z,71.30
2018-10-01T03:48:57.635Z,70.90
2018-10-01T03:51:26.513Z,70.80
2018-10-01T03:53:55.408Z,70.80
2018-10-01T03:56:24.218Z,71.50
2018-10-01T03:58:52.993Z,70.40
2018-10-01T04:01:21.817Z,70.40
2018-10-01T04:03:50.589Z,70.60
2018-10-01T04:06:19.487Z,70.70
2018-10-01T04:08:48.253Z,70.80
2018-10-01T04:11:17.083Z,71.00
2018-10-01T04:13:45.919Z,70.60
2018-10-01T04:16:14.817Z,70.60
2018-10-01T04:18:43.852Z,70.50
2018-10-01T04:21:12.720Z,70.70
2018-10-01T04:23:41.600Z,71.10
2018-10-01T04:26:10.420Z,71.00
2018-10-01T04:28:39.260Z,71.00
2018-10-01T04:31:08.381Z,71.30
2018-10-01T04:33:37.214Z,71.80
2018-10-01T04:36:06.051Z,72.10
2018-10-01T04:38:34.883Z,72.20
2018-10-01T04:41:03.655Z,72.50
2018-10-01T04:43:32.555Z,72.90
2018-10-01T04:46:01.328Z,72.70
2018-10-01T04:48:30.298Z,73.30
2018-10-01T04:50:59.114Z,73.30
2018-10-01T04:53:27.930Z,73.30
2018-10-01T04:55:56.730Z,73.60
2018-10-01T04:58:25.551Z,73.20
2018-10-01T05:00:54.303Z,73.00
2018-10-01T05:03:23.153Z,73.40
2018-10-01T05:05:52.033Z,74.10
2018-10-01T05:08:20.869Z,74.00
2018-10-01T05:10:49.620Z,74.50
2018-10-01T05:13:18.421Z,74.00
2018-10-01T05:15:47.213Z,74.00
2018-10-01T05:18:16.085Z,74.10
2018-10-01T05:20:44.919Z,74.00
2018-10-01T05:23:13.702Z,74.60
2018-10-01T05:25:42.556Z,75.50
2018-10-01T05:28:11.438Z,74.00
2018-10-01T05:30:40.280Z,74.20
2018-10-01T05:33:09.092Z,74.30
2018-10-01T05:35:37.952Z,74.30
2018-10-01T05:38:06.888Z,74.50
2018-10-01T05:40:35.693Z,74.10
2018-10-01T05:43:04.523Z,74.20
2018-10-01T05:45:33.329Z,74.60
2018-10-01T05:48:02.141Z,74.60
2018-10-01T05:50:31.106Z,74.60
2018-10-01T05:53:00.094Z,74.70
2018-10-01T05:55:28.917Z,74.90
2018-10-01T05:57:57.734Z,74.70
2018-10-01T06:00:26.648Z,75.30
2018-10-01T06:02:55.581Z,75.30
2018-10-01T06:05:24.387Z,75.60
2018-10-01T06:07:53.155Z,75.70
2018-10-01T06:10:21.922Z,75.80
2018-10-01T06:12:50.833Z,75.50
2018-10-01T06:15:19.676Z,75.50
2018-10-01T06:17:48.487Z,75.30
2018-10-01T06:20:17.609Z,75.00
2018-10-01T06:22:46.646Z,75.00
2018-10-01T06:25:16.390Z,75.10
2018-10-01T06:27:45.290Z,74.80
2018-10-01T06:30:15.801Z,74.70
2018-10-01T06:32:45.456Z,74.40
2018-10-01T06:35:14.908Z,74.00
2018-10-01T06:37:45.368Z,74.50
2018-10-01T06:40:15.848Z,72.30
2018-10-01T06:42:45.736Z,70.10
2018-10-01T06:45:15.727Z,68.00
2018-10-01T06:47:45.672Z,66.90
2018-10-01T06:50:15.441Z,65.30
2018-10-01T06:52:45.410Z,64.60
2018-10-01T06:55:14.889Z,62.90
2018-10-01T06:57:44.468Z,62.20
2018-10-01T07:00:13.878Z,60.80
2018-10-01T07:02:43.345Z,60.70
2018-10-01T07:05:13.510Z,60.10
2018-10-01T07:07:42.285Z,61.00
2018-10-01T07:10:15.220Z,60.50
2018-10-01T07:12:45.687Z,59.10
2018-10-01T07:15:14.863Z,59.00
2018-10-01T07:17:43.665Z,58.40
2018-10-01T07:20:12.538Z,58.60
2018-10-01T07:22:41.650Z,60.50
2018-10-01T07:25:10.456Z,60.50
2018-10-01T07:27:39.253Z,60.70
2018-10-01T07:30:08.187Z,60.70
2018-10-01T07:32:37.118Z,60.00
2018-10-01T07:35:06.634Z,59.50
2018-10-01T07:37:35.496Z,59.00
2018-10-01T07:40:04.410Z,58.40
2018-10-01T07:42:33.327Z,59.00
2018-10-01T07:45:02.264Z,58.80
2018-10-01T07:47:32.886Z,58.70
2018-10-01T07:50:03.381Z,58.20
2018-10-01T07:52:32.338Z,58.10
2018-10-01T07:55:02.418Z,58.10
2018-10-01T07:57:33.372Z,57.00
2018-10-01T08:00:03.750Z,57.20
2018-10-01T08:02:35.075Z,57.00
2018-10-01T08:05:03.973Z,57.00
2018-10-01T08:07:32.792Z,56.90
2018-10-01T08:10:01.605Z,56.70
2018-10-01T08:12:32.453Z,54.50
2018-10-01T08:15:01.676Z,53.20
2018-10-01T08:17:30.466Z,55.40
2018-10-01T08:19:59.372Z,56.20
2018-10-01T08:22:28.227Z,54.40
2018-10-01T08:24:57.099Z,54.80
2018-10-01T08:27:25.876Z,57.40
2018-10-01T08:29:54.976Z,56.70
2018-10-01T08:32:23.751Z,57.20
2018-10-01T08:34:54.105Z,59.10
2018-10-01T08:37:22.935Z,59.20
2018-10-01T08:39:51.698Z,59.70
2018-10-01T08:42:20.546Z,57.60
2018-10-01T08:44:49.308Z,56.60
2018-10-01T08:47:18.209Z,56.00
2018-10-01T08:49:53.935Z,56.90
2018-10-01T08:52:29.324Z,58.50
2018-10-01T08:54:58.172Z,57.50
2018-10-01T08:57:26.969Z,57.30
2018-10-01T08:59:55.745Z,55.20
2018-10-01T09:02:27.160Z,54.50
2018-10-01T09:04:56.122Z,53.80
2018-10-01T09:07:24.916Z,57.80
2018-10-01T09:09:54.661Z,54.70
2018-10-01T09:12:23.818Z,53.80
2018-10-01T09:14:54.206Z,53.20
2018-10-01T09:17:23.267Z,52.90
2018-10-01T09:19:52.113Z,54.10
2018-10-01T09:22:21.697Z,54.10
2018-10-01T09:24:50.587Z,55.20
2018-10-01T09:27:19.878Z,55.90
2018-10-01T09:29:48.628Z,56.10
2018-10-01T09:32:17.737Z,58.80
2018-10-01T09:34:46.836Z,63.30
2018-10-01T09:37:16.922Z,63.70
2018-10-01T09:39:45.778Z,66.60
2018-10-01T09:42:14.842Z,68.60
2018-10-01T09:44:45.964Z,70.20
2018-10-01T09:47:14.964Z,72.70
2018-10-01T09:49:46.033Z,74.20
2018-10-01T09:52:16.353Z,72.20
2018-10-01T09:54:45.649Z,73.20
2018-10-01T09:57:14.896Z,70.00
2018-10-01T09:59:43.714Z,68.40
2018-10-01T10:02:13.011Z,63.60
2018-10-01T10:04:43.417Z,67.30
2018-10-01T10:07:12.396Z,62.80
2018-10-01T10:09:44.574Z,58.80
2018-10-01T10:12:13.620Z,62.80
2018-10-01T10:14:42.454Z,60.70
2018-10-01T10:17:11.611Z,62.50
2018-10-01T10:19:42.139Z,58.20
2018-10-01T10:22:15.959Z,58.10
2018-10-01T10:24:44.769Z,57.30
2018-10-01T10:27:13.700Z,58.60
2018-10-01T10:29:42.477Z,57.70
2018-10-01T10:32:13.589Z,58.80
2018-10-01T10:34:42.530Z,59.20
2018-10-01T10:37:11.335Z,60.00
2018-10-01T10:39:40.236Z,60.00
2018-10-01T10:42:08.935Z,62.70
2018-10-01T10:44:37.839Z,63.00
2018-10-01T10:47:06.636Z,65.00
2018-10-01T10:49:35.423Z,63.20
2018-10-01T10:52:04.289Z,62.40
2018-10-01T10:54:33.116Z,56.90
2018-10-01T10:57:02.296Z,58.50
2018-10-01T10:59:31.168Z,59.30
2018-10-01T11:01:59.951Z,57.30
2018-10-01T11:04:29.784Z,57.70
2018-10-01T11:06:58.754Z,53.80
2018-10-01T11:09:27.535Z,54.70
2018-10-01T11:11:56.379Z,54.00
2018-10-01T11:14:25.231Z,55.60
2018-10-01T11:16:54.043Z,55.40
2018-10-01T11:19:23.104Z,55.90
2018-10-01T11:21:51.914Z,55.20
2018-10-01T11:24:20.691Z,55.80
2018-10-01T11:26:49.709Z,54.70
2018-10-01T11:29:18.656Z,56.40
2018-10-01T11:31:47.627Z,55.50
2018-10-01T11:34:16.444Z,57.00
2018-10-01T11:36:45.190Z,56.40
2018-10-01T11:39:14.694Z,58.10
2018-10-01T11:41:43.778Z,55.70
2018-10-01T11:44:12.541Z,56.80
2018-10-01T11:46:41.349Z,57.50
2018-10-01T11:49:10.341Z,56.90
2018-10-01T11:51:39.276Z,57.30
2018-10-01T11:54:08.043Z,57.20
2018-10-01T11:56:37.041Z,57.00
2018-10-01T11:59:05.973Z,56.90
2018-10-01T12:01:34.732Z,56.80
2018-10-01T12:04:03.630Z,56.10
2018-10-01T12:06:32.388Z,54.50
2018-10-01T12:09:01.191Z,52.90
2018-10-01T12:11:29.972Z,53.90
2018-10-01T12:13:59.188Z,52.00
2018-10-01T12:16:28.028Z,51.90
2018-10-01T12:18:56.957Z,52.70
2018-10-01T12:21:25.824Z,52.40
2018-10-01T12:23:54.654Z,52.30
2018-10-01T12:26:23.452Z,51.90
2018-10-01T12:28:52.262Z,52.30
2018-10-01T12:31:23.970Z,52.50
2018-10-01T12:33:52.808Z,51.40
2018-10-01T12:36:22.423Z,52.30
2018-10-01T12:38:51.213Z,52.20
2018-10-01T12:41:20.019Z,52.10
2018-10-01T12:43:48.832Z,53.10
2018-10-01T12:46:17.649Z,55.70
2018-10-01T12:48:46.501Z,56.20
2018-10-01T12:51:15.327Z,60.50
2018-10-01T12:53:44.484Z,65.10
2018-10-01T12:56:13.441Z,65.70
2018-10-01T12:58:42.221Z,66.50
2018-10-01T13:01:11.165Z,66.50
2018-10-01T13:03:39.949Z,67.00
2018-10-01T13:06:09.177Z,64.90
2018-10-01T13:08:37.910Z,64.60
2018-10-01T13:11:06.805Z,64.60
2018-10-01T13:13:35.598Z,63.40
2018-10-01T13:16:04.454Z,63.40
2018-10-01T13:18:33.367Z,63.60
2018-10-01T13:21:02.109Z,64.20
2018-10-01T13:23:30.959Z,65.90
2018-10-01T13:25:59.838Z,65.40
2018-10-01T13:28:28.637Z,66.60
2018-10-01T13:30:57.535Z,65.90
2018-10-01T13:33:26.354Z,64.70
2018-10-01T13:35:55.182Z,62.70
2018-10-01T13:38:24.057Z,63.80
2018-10-01T13:40:52.978Z,61.90
2018-10-01T13:43:21.775Z,62.40
2018-10-01T13:45:50.581Z,62.90
2018-10-01T13:48:19.563Z,61.80
2018-10-01T13:50:48.367Z,61.00
2018-10-01T13:53:17.137Z,60.90
2018-10-01T13:55:46.567Z,60.30
2018-10-01T13:58:15.471Z,59.70
2018-10-01T14:00:44.267Z,60.40
2018-10-01T14:03:13.151Z,60.50
2018-10-01T14:05:41.982Z,61.70
2018-10-01T14:08:10.784Z,61.40
2018-10-01T14:10:39.647Z,59.20
2018-10-01T14:13:08.504Z,59.50
2018-10-01T14:15:37.286Z,57.50
2018-10-01T14:18:06.140Z,57.10
2018-10-01T14:20:35.845Z,58.50
2018-10-01T14:23:04.708Z,56.20
2018-10-01T14:25:33.522Z,56.60
2018-10-01T14:28:02.356Z,56.10
2018-10-01T14:30:31.222Z,57.30
2018-10-01T14:33:00.025Z,57.10
2018-10-01T14:35:28.888Z,56.80
2018-10-01T14:37:58.024Z,56.60
2018-10-01T14:40:26.915Z,55.90
2018-10-01T14:42:55.845Z,55.90
2018-10-01T14:45:25.634Z,56.00
2018-10-01T14:47:54.386Z,55.50
2018-10-01T14:50:23.232Z,54.60
2018-10-01T14:52:51.980Z,54.30
2018-10-01T14:55:20.776Z,54.60
2018-10-01T14:57:49.857Z,55.70
2018-10-01T15:00:18.702Z,54.20
2018-10-01T15:02:47.484Z,53.30
2018-10-01T15:05:16.298Z,55.90
2018-10-01T15:07:45.201Z,54.20
2018-10-01T15:10:14.073Z,54.70
2018-10-01T15:12:42.872Z,55.30
2018-10-01T15:15:11.713Z,56.20
2018-10-01T15:17:40.483Z,57.70
2018-10-01T15:20:09.831Z,57.00
2018-10-01T15:22:38.701Z,57.10
2018-10-01T15:25:07.625Z,57.20
2018-10-01T15:27:36.453Z,56.90
2018-10-01T15:30:06.143Z,56.80
2018-10-01T15:32:34.895Z,56.70
2018-10-01T15:35:03.790Z,58.00
2018-10-01T15:37:32.714Z,57.00
2018-10-01T15:40:04.307Z,57.00
2018-10-01T15:42:33.193Z,58.90
2018-10-01T15:45:01.971Z,64.00
2018-10-01T15:47:30.759Z,65.10
2018-10-01T15:50:00.135Z,64.50
2018-10-01T15:52:29.281Z,68.00
2018-10-01T15:54:58.379Z,69.00
2018-10-01T15:57:27.150Z,72.30
2018-10-01T15:59:55.919Z,69.40
2018-10-01T16:02:24.766Z,71.00
2018-10-01T16:04:53.696Z,70.20
2018-10-01T16:07:22.515Z,71.20
2018-10-01T16:09:52.147Z,71.10
2018-10-01T16:12:20.952Z,71.70
2018-10-01T16:14:50.761Z,71.20
2018-10-01T16:17:19.530Z,70.70
2018-10-01T16:19:48.409Z,71.20
2018-10-01T16:22:17.229Z,71.40
2018-10-01T16:24:46.080Z,71.00
2018-10-01T16:27:14.871Z,70.70
2018-10-01T16:29:43.747Z,70.80
2018-10-01T16:32:12.547Z,70.70
2018-10-01T16:34:41.318Z,71.40
2018-10-01T16:37:10.148Z,72.60
2018-10-01T16:39:38.953Z,71.70
2018-10-01T16:42:07.844Z,70.90
2018-10-01T16:44:36.758Z,71.00
2018-10-01T16:47:05.684Z,71.50
2018-10-01T16:49:34.505Z,69.30
2018-10-01T16:52:03.994Z,67.60
2018-10-01T16:54:32.767Z,67.40
2018-10-01T16:57:01.897Z,66.70
2018-10-01T16:59:30.682Z,69.10
2018-10-01T17:01:59.429Z,68.30
2018-10-01T17:04:28.395Z,67.80
2018-10-01T17:06:57.192Z,68.00
2018-10-01T17:09:26.039Z,68.70
2018-10-01T17:11:54.851Z,67.50
2018-10-01T17:14:24.044Z,67.70
2018-10-01T17:16:56.741Z,68.20
2018-10-01T17:19:26.926Z,68.70
2018-10-01T17:21:55.885Z,68.30
2018-10-01T17:24:24.751Z,69.20
2018-10-01T17:26:53.913Z,69.30
2018-10-01T17:29:22.718Z,70.20
2018-10-01T17:31:51.507Z,71.10
2018-10-01T17:34:20.285Z,72.00
2018-10-01T17:36:49.103Z,71.80
2018-10-01T17:39:17.885Z,71.70
2018-10-01T17:41:46.774Z,72.40
2018-10-01T17:44:15.570Z,72.50
2018-10-01T17:46:44.405Z,72.00
2018-10-01T17:49:13.404Z,72.50
2018-10-01T17:51:42.297Z,72.00
2018-10-01T17:54:11.152Z,72.90
2018-10-01T17:56:39.975Z,72.20
2018-10-01T17:59:08.792Z,73.90
2018-10-01T18:01:39.745Z,73.90
2018-10-01T18:04:08.578Z,74.40
2018-10-01T18:06:37.604Z,74.10
2018-10-01T18:09:10.680Z,74.10
2018-10-01T18:11:40.124Z,73.40
2018-10-01T18:14:09.518Z,73.40
2018-10-01T18:16:38.296Z,72.50
2018-10-01T18:19:07.112Z,73.20
2018-10-01T18:21:35.989Z,72.50
2018-10-01T18:24:04.931Z,72.40
2018-10-01T18:26:36.770Z,72.70
2018-10-01T18:29:05.612Z,72.50
2018-10-01T18:31:34.397Z,73.10
2018-10-01T18:34:03.309Z,73.30
2018-10-01T18:36:32.098Z,73.50
2018-10-01T18:39:01.574Z,73.70
2018-10-01T18:41:30.383Z,73.60
2018-10-01T18:43:59.166Z,73.40
2018-10-01T18:49:18.297Z,73.50
2018-10-01T18:51:47.055Z,73.40
2018-10-01T18:54:16.499Z,73.00
2018-10-01T18:56:45.259Z,73.80
2018-10-01T18:59:14.220Z,72.70
2018-10-01T19:01:43.084Z,71.90
2018-10-01T19:04:11.937Z,72.80
2018-10-01T19:06:40.722Z,72.60
2018-10-01T19:09:11.650Z,74.20
2018-10-01T19:11:40.924Z,74.20
2018-10-01T19:14:10.492Z,74.20
2018-10-01T19:16:39.455Z,74.20
2018-10-01T19:19:08.306Z,74.00
2018-10-01T19:21:37.246Z,73.70
2018-10-01T19:24:08.626Z,74.20
2018-10-01T19:26:37.491Z,74.20
2018-10-01T19:29:06.369Z,74.80
2018-10-01T19:31:43.493Z,74.40
2018-10-01T19:34:14.665Z,75.00
2018-10-01T19:36:45.718Z,75.30
2018-10-01T19:39:14.885Z,75.30
2018-10-01T19:41:45.578Z,75.00
2018-10-01T19:44:16.405Z,75.00
2018-10-01T19:46:46.008Z,74.90
2018-10-01T19:49:15.317Z,74.80
2018-10-01T19:51:44.229Z,75.40
2018-10-01T19:54:14.551Z,74.80
2018-10-01T19:56:44.852Z,74.50
2018-10-01T19:59:14.966Z,73.90
2018-10-01T20:01:45.852Z,74.50
2018-10-01T20:04:15.915Z,74.50
2018-10-01T20:06:46.599Z,74.70
2018-10-01T20:09:19.669Z,74.70
2018-10-01T20:11:48.569Z,74.80
2018-10-01T20:14:18.629Z,74.50
2018-10-01T20:16:47.559Z,74.60
2018-10-01T20:19:16.558Z,75.10
2018-10-01T20:21:45.338Z,74.70
2018-10-01T20:24:14.416Z,75.20
2018-10-01T20:26:43.411Z,75.60
2018-10-01T20:29:14.122Z,75.60
2018-10-01T20:31:44.914Z,75.90
2018-10-01T20:34:14.001Z,75.70
2018-10-01T20:36:42.804Z,75.90
2018-10-01T20:39:11.783Z,75.20
2018-10-01T20:41:40.683Z,74.90
2018-10-01T20:44:09.549Z,74.50
2018-10-01T20:46:38.397Z,74.70
2018-10-01T20:49:07.250Z,73.80
2018-10-01T20:51:36.180Z,74.20
2018-10-01T20:54:04.955Z,73.60
2018-10-01T20:56:33.700Z,73.60
2018-10-01T20:59:02.763Z,73.60
2018-10-01T21:01:31.501Z,73.90
2018-10-01T21:04:00.356Z,74.20
2018-10-01T21:06:35.664Z,74.50
2018-10-01T21:09:06.641Z,74.10
2018-10-01T21:11:35.481Z,74.20
2018-10-01T21:14:04.351Z,74.90
2018-10-01T21:16:33.120Z,73.90
2018-10-01T21:19:01.929Z,74.00
2018-10-01T21:21:30.882Z,74.20
2018-10-01T21:24:00.300Z,74.20
2018-10-01T21:26:29.113Z,74.10
2018-10-01T21:28:57.873Z,74.50
2018-10-01T21:31:26.919Z,74.50
2018-10-01T21:33:55.831Z,74.70
2018-10-01T21:36:25.360Z,74.20
2018-10-01T21:38:54.230Z,74.00
2018-10-01T21:41:23.531Z,73.50
2018-10-01T21:43:52.393Z,73.90
2018-10-01T21:46:22.061Z,74.10
2018-10-01T21:48:50.957Z,74.20
2018-10-01T21:51:19.789Z,74.50
2018-10-01T21:53:48.650Z,74.20
2018-10-01T21:56:17.505Z,74.40
2018-10-01T21:58:46.308Z,74.30
2018-10-01T22:01:55.652Z,74.50
2018-10-01T22:04:24.388Z,74.30
2018-10-01T22:06:53.667Z,74.90
2018-10-01T22:09:22.497Z,75.20
2018-10-01T22:11:51.349Z,75.20
2018-10-01T22:14:20.581Z,75.40
2018-10-01T22:16:49.447Z,75.20
2018-10-01T22:19:18.269Z,75.60
2018-10-01T22:21:47.178Z,75.50
2018-10-01T22:24:15.965Z,75.50
2018-10-01T22:26:44.800Z,75.50
2018-10-01T22:29:13.667Z,75.70
2018-10-01T22:31:42.469Z,75.60
2018-10-01T22:34:11.357Z,75.60
2018-10-01T22:36:40.192Z,75.50
2018-10-01T22:39:09.708Z,75.50
2018-10-01T22:41:39.317Z,75.90
2018-10-01T22:44:08.673Z,75.30
2018-10-01T22:46:37.936Z,75.50
2018-10-01T22:49:06.936Z,75.40
2018-10-01T22:51:35.793Z,75.40
2018-10-01T22:54:04.597Z,75.70
2018-10-01T22:56:33.422Z,76.00
2018-10-01T22:59:02.306Z,76.00
2018-10-01T23:01:31.238Z,76.20
2018-10-01T23:04:00.887Z,76.70
2018-10-01T23:06:29.779Z,76.20
2018-10-01T23:08:58.605Z,76.10
2018-10-01T23:11:27.484Z,76.80
2018-10-01T23:13:56.557Z,76.30
2018-10-01T23:16:25.368Z,76.40
2018-10-01T23:18:54.224Z,76.40
2018-10-01T23:21:23.159Z,76.30
2018-10-01T23:23:51.976Z,76.40
2018-10-01T23:26:20.745Z,76.20
2018-10-01T23:28:49.659Z,76.30
2018-10-01T23:31:18.679Z,76.60
2018-10-01T23:33:47.543Z,76.40
2018-10-01T23:36:16.436Z,77.30
2018-10-01T23:38:45.233Z,77.00
2018-10-01T23:41:13.995Z,77.50
2018-10-01T23:43:42.842Z,77.50
2018-10-01T23:46:11.658Z,77.40
2018-10-01T23:48:40.785Z,77.40
2018-10-01T23:51:10.468Z,77.50
2018-10-01T23:53:39.579Z,77.20
2018-10-01T23:56:08.452Z,77.40
2018-10-01T23:58:37.196Z,77.30
